sensor_id;sensor_type;location;lat;lon;timestamp;pressure;altitude;pressure_sealevel;temperature;humidity
63694;BME280;49839;51.798;10.954;2023-06-22T00:01:49;99395.16;;;20.13;nan
63694;BME280;49839;51.798;10.954;2023-06-22T00:04:16;99390.94;;;20.10;nan
63694;BME280;49839;51.798;10.954;2023-06-22T00:06:44;99388.13;;;20.12;nan
63694;BME280;49839;51.798;10.954;2023-06-22T00:09:12;99391.78;;;20.11;nan
63694;BME280;49839;51.798;10.954;2023-06-22T00:11:40;99387.53;;;20.08;nan
63694;BME280;49839;51.798;10.954;2023-06-22T00:14:09;99390.22;;;20.08;nan
63694;BME280;49839;51.798;10.954;2023-06-22T00:16:36;99384.88;;;20.08;nan
63694;BME280;49839;51.798;10.954;2023-06-22T00:19:04;99377.97;;;20.06;nan
63694;BME280;49839;51.798;10.954;2023-06-22T00:21:32;99378.22;;;20.02;nan
63694;BME280;49839;51.798;10.954;2023-06-22T00:23:59;99389.66;;;20.05;nan
63694;BME280;49839;51.798;10.954;2023-06-22T00:26:27;99396.13;;;20.02;nan
63694;BME280;49839;51.798;10.954;2023-06-22T00:28:55;99397.94;;;20.01;nan
63694;BME280;49839;51.798;10.954;2023-06-22T00:31:24;99398.94;;;20.00;nan
63694;BME280;49839;51.798;10.954;2023-06-22T00:33:51;99406.25;;;19.98;nan
63694;BME280;49839;51.798;10.954;2023-06-22T00:36:19;99414.44;;;19.97;nan
63694;BME280;49839;51.798;10.954;2023-06-22T00:38:46;99416.66;;;19.92;nan
63694;BME280;49839;51.798;10.954;2023-06-22T00:41:17;99425.38;;;19.84;nan
63694;BME280;49839;51.798;10.954;2023-06-22T00:43:44;99425.63;;;19.81;nan
63694;BME280;49839;51.798;10.954;2023-06-22T00:46:12;99430.13;;;19.81;nan
63694;BME280;49839;51.798;10.954;2023-06-22T00:48:41;99439.00;;;19.81;nan
63694;BME280;49839;51.798;10.954;2023-06-22T00:51:10;99426.47;;;19.82;nan
63694;BME280;49839;51.798;10.954;2023-06-22T00:53:38;99423.22;;;19.78;nan
63694;BME280;49839;51.798;10.954;2023-06-22T00:56:07;99431.91;;;19.70;nan
63694;BME280;49839;51.798;10.954;2023-06-22T00:58:35;99427.69;;;19.68;nan
63694;BME280;49839;51.798;10.954;2023-06-22T01:01:03;99412.47;;;19.68;nan
63694;BME280;49839;51.798;10.954;2023-06-22T01:03:31;99406.28;;;19.68;nan
63694;BME280;49839;51.798;10.954;2023-06-22T01:06:03;99402.78;;;19.67;nan
63694;BME280;49839;51.798;10.954;2023-06-22T01:08:39;99393.78;;;19.68;nan
63694;BME280;49839;51.798;10.954;2023-06-22T01:11:14;99392.63;;;19.61;nan
63694;BME280;49839;51.798;10.954;2023-06-22T01:13:48;99388.06;;;19.52;nan
63694;BME280;49839;51.798;10.954;2023-06-22T01:16:20;99385.78;;;19.47;nan
63694;BME280;49839;51.798;10.954;2023-06-22T01:18:53;99383.25;;;19.46;nan
63694;BME280;49839;51.798;10.954;2023-06-22T01:21:25;99378.88;;;19.45;nan
63694;BME280;49839;51.798;10.954;2023-06-22T01:24:04;99383.25;;;19.46;nan
63694;BME280;49839;51.798;10.954;2023-06-22T01:26:38;99383.25;;;19.46;nan
63694;BME280;49839;51.798;10.954;2023-06-22T01:29:12;99388.00;;;19.42;nan
63694;BME280;49839;51.798;10.954;2023-06-22T01:31:42;99385.47;;;19.41;nan
63694;BME280;49839;51.798;10.954;2023-06-22T01:34:12;99372.50;;;19.36;nan
63694;BME280;49839;51.798;10.954;2023-06-22T01:36:40;99371.34;;;19.29;nan
63694;BME280;49839;51.798;10.954;2023-06-22T01:39:08;99369.66;;;19.28;nan
63694;BME280;49839;51.798;10.954;2023-06-22T01:41:38;99361.63;;;19.28;nan
63694;BME280;49839;51.798;10.954;2023-06-22T01:44:07;99366.00;;;19.29;nan
63694;BME280;49839;51.798;10.954;2023-06-22T01:46:38;99367.97;;;19.27;nan
63694;BME280;49839;51.798;10.954;2023-06-22T01:49:07;99365.53;;;19.24;nan
63694;BME280;49839;51.798;10.954;2023-06-22T01:51:35;99371.03;;;19.23;nan
63694;BME280;49839;51.798;10.954;2023-06-22T01:54:05;99374.41;;;19.25;nan
63694;BME280;49839;51.798;10.954;2023-06-22T01:56:33;99363.72;;;19.25;nan
63694;BME280;49839;51.798;10.954;2023-06-22T01:59:06;99367.13;;;19.27;nan
63694;BME280;49839;51.798;10.954;2023-06-22T02:01:42;99362.63;;;19.27;nan
63694;BME280;49839;51.798;10.954;2023-06-22T02:04:13;99360.09;;;19.26;nan
63694;BME280;49839;51.798;10.954;2023-06-22T02:06:43;99350.19;;;19.16;nan
63694;BME280;49839;51.798;10.954;2023-06-22T02:09:16;99361.16;;;19.13;nan
63694;BME280;49839;51.798;10.954;2023-06-22T02:11:45;99355.91;;;19.12;nan
63694;BME280;49839;51.798;10.954;2023-06-22T02:14:14;99356.75;;;19.12;nan
63694;BME280;49839;51.798;10.954;2023-06-22T02:16:46;99349.88;;;19.10;nan
63694;BME280;49839;51.798;10.954;2023-06-22T02:19:14;99349.03;;;19.09;nan
63694;BME280;49839;51.798;10.954;2023-06-22T02:21:45;99354.50;;;19.08;nan
63694;BME280;49839;51.798;10.954;2023-06-22T02:24:12;99362.63;;;19.06;nan
63694;BME280;49839;51.798;10.954;2023-06-22T02:26:40;99367.25;;;19.04;nan
63694;BME280;49839;51.798;10.954;2023-06-22T02:29:09;99361.78;;;19.06;nan
63694;BME280;49839;51.798;10.954;2023-06-22T02:31:36;99359.13;;;19.06;nan
63694;BME280;49839;51.798;10.954;2023-06-22T02:34:05;99369.09;;;19.04;nan
63694;BME280;49839;51.798;10.954;2023-06-22T02:36:33;99360.94;;;19.05;nan
63694;BME280;49839;51.798;10.954;2023-06-22T02:39:01;99366.75;;;19.10;nan
63694;BME280;49839;51.798;10.954;2023-06-22T02:41:30;99364.22;;;19.09;nan
63694;BME280;49839;51.798;10.954;2023-06-22T02:43:57;99367.59;;;19.11;nan
63694;BME280;49839;51.798;10.954;2023-06-22T02:46:25;99368.31;;;19.13;nan
63694;BME280;49839;51.798;10.954;2023-06-22T02:48:53;99371.00;;;19.13;nan
63694;BME280;49839;51.798;10.954;2023-06-22T02:51:24;99368.19;;;19.14;nan
63694;BME280;49839;51.798;10.954;2023-06-22T02:53:52;99377.59;;;19.18;nan
63694;BME280;49839;51.798;10.954;2023-06-22T02:56:24;99381.84;;;19.21;nan
63694;BME280;49839;51.798;10.954;2023-06-22T02:58:52;99381.47;;;19.26;nan
63694;BME280;49839;51.798;10.954;2023-06-22T03:01:19;99387.38;;;19.29;nan
63694;BME280;49839;51.798;10.954;2023-06-22T03:03:51;99392.47;;;19.32;nan
63694;BME280;49839;51.798;10.954;2023-06-22T03:06:18;99401.75;;;19.38;nan
63694;BME280;49839;51.798;10.954;2023-06-22T03:08:51;99403.19;;;19.42;nan
63694;BME280;49839;51.798;10.954;2023-06-22T03:11:19;99410.69;;;19.48;nan
63694;BME280;49839;51.798;10.954;2023-06-22T03:13:47;99415.75;;;19.51;nan
63694;BME280;49839;51.798;10.954;2023-06-22T03:16:14;99421.53;;;19.56;nan
63694;BME280;49839;51.798;10.954;2023-06-22T03:18:42;99423.31;;;19.67;nan
63694;BME280;49839;51.798;10.954;2023-06-22T03:21:09;99419.13;;;19.74;nan
63694;BME280;49839;51.798;10.954;2023-06-22T03:23:37;99430.41;;;19.78;nan
63694;BME280;49839;51.798;10.954;2023-06-22T03:26:06;99414.91;;;19.81;nan
63694;BME280;49839;51.798;10.954;2023-06-22T03:28:34;99429.72;;;19.85;nan
63694;BME280;49839;51.798;10.954;2023-06-22T03:31:03;99425.06;;;19.87;nan
63694;BME280;49839;51.798;10.954;2023-06-22T03:33:30;99432.13;;;19.88;nan
63694;BME280;49839;51.798;10.954;2023-06-22T03:35:58;99425.22;;;19.86;nan
63694;BME280;49839;51.798;10.954;2023-06-22T03:38:26;99430.13;;;19.81;nan
63694;BME280;49839;51.798;10.954;2023-06-22T03:40:53;99436.31;;;19.81;nan
63694;BME280;49839;51.798;10.954;2023-06-22T03:43:22;99447.72;;;19.83;nan
63694;BME280;49839;51.798;10.954;2023-06-22T03:45:50;99451.25;;;19.84;nan
63694;BME280;49839;51.798;10.954;2023-06-22T03:48:18;99446.75;;;19.84;nan
63694;BME280;49839;51.798;10.954;2023-06-22T03:50:45;99449.28;;;19.86;nan
63694;BME280;49839;51.798;10.954;2023-06-22T03:53:13;99449.16;;;19.87;nan
63694;BME280;49839;51.798;10.954;2023-06-22T03:55:47;99445.50;;;19.88;nan
63694;BME280;49839;51.798;10.954;2023-06-22T03:58:16;99445.22;;;19.91;nan
63694;BME280;49839;51.798;10.954;2023-06-22T04:00:46;99445.78;;;19.95;nan
63694;BME280;49839;51.798;10.954;2023-06-22T04:03:15;99434.56;;;20.01;nan
63694;BME280;49839;51.798;10.954;2023-06-22T04:05:42;99439.50;;;20.06;nan
63694;BME280;49839;51.798;10.954;2023-06-22T04:08:10;99439.09;;;20.10;nan
63694;BME280;49839;51.798;10.954;2023-06-22T04:10:38;99440.25;;;20.17;nan
63694;BME280;49839;51.798;10.954;2023-06-22T04:13:07;99432.78;;;20.21;nan
63694;BME280;49839;51.798;10.954;2023-06-22T04:15:34;99434.19;;;20.25;nan
63694;BME280;49839;51.798;10.954;2023-06-22T04:18:04;99433.06;;;20.27;nan
63694;BME280;49839;51.798;10.954;2023-06-22T04:20:31;99427.31;;;20.32;nan
63694;BME280;49839;51.798;10.954;2023-06-22T04:22:59;99418.03;;;20.36;nan
63694;BME280;49839;51.798;10.954;2023-06-22T04:25:27;99418.31;;;20.43;nan
63694;BME280;49839;51.798;10.954;2023-06-22T04:27:55;99403.41;;;20.50;nan
63694;BME280;49839;51.798;10.954;2023-06-22T04:30:22;99407.63;;;20.52;nan
63694;BME280;49839;51.798;10.954;2023-06-22T04:32:50;99403.56;;;20.58;nan
63694;BME280;49839;51.798;10.954;2023-06-22T04:35:25;99406.81;;;20.62;nan
63694;BME280;49839;51.798;10.954;2023-06-22T04:37:57;99397.63;;;20.64;nan
63694;BME280;49839;51.798;10.954;2023-06-22T04:40:25;99400.03;;;20.67;nan
63694;BME280;49839;51.798;10.954;2023-06-22T04:42:53;99398.22;;;20.68;nan
63694;BME280;49839;51.798;10.954;2023-06-22T04:45:21;99398.75;;;20.71;nan
63694;BME280;49839;51.798;10.954;2023-06-22T04:47:49;99390.84;;;20.79;nan
63694;BME280;49839;51.798;10.954;2023-06-22T04:50:16;99388.34;;;20.88;nan
63694;BME280;49839;51.798;10.954;2023-06-22T04:52:49;99387.88;;;20.92;nan
63694;BME280;49839;51.798;10.954;2023-06-22T04:55:16;99388.59;;;20.94;nan
63694;BME280;49839;51.798;10.954;2023-06-22T04:57:45;99383.50;;;21.01;nan
63694;BME280;49839;51.798;10.954;2023-06-22T05:00:16;99385.47;;;21.08;nan
63694;BME280;49839;51.798;10.954;2023-06-22T05:02:46;99394.78;;;21.14;nan
63694;BME280;49839;51.798;10.954;2023-06-22T05:05:14;99381.78;;;21.19;nan
63694;BME280;49839;51.798;10.954;2023-06-22T05:07:43;99386.84;;;21.22;nan
63694;BME280;49839;51.798;10.954;2023-06-22T05:10:12;99374.69;;;21.28;nan
63694;BME280;49839;51.798;10.954;2023-06-22T05:12:40;99376.13;;;21.32;nan
63694;BME280;49839;51.798;10.954;2023-06-22T05:15:08;99375.41;;;21.30;nan
63694;BME280;49839;51.798;10.954;2023-06-22T05:17:36;99365.97;;;21.26;nan
63694;BME280;49839;51.798;10.954;2023-06-22T05:20:10;99369.75;;;21.23;nan
63694;BME280;49839;51.798;10.954;2023-06-22T05:22:37;99369.63;;;21.25;nan
63694;BME280;49839;51.798;10.954;2023-06-22T05:25:08;99369.75;;;21.23;nan
63694;BME280;49839;51.798;10.954;2023-06-22T05:27:37;99366.81;;;21.26;nan
63694;BME280;49839;51.798;10.954;2023-06-22T05:30:07;99368.94;;;21.32;nan
63694;BME280;49839;51.798;10.954;2023-06-22T05:32:35;99364.97;;;21.36;nan
63694;BME280;49839;51.798;10.954;2023-06-22T05:35:03;99364.53;;;21.41;nan
63694;BME280;49839;51.798;10.954;2023-06-22T05:37:31;99363.38;;;21.44;nan
63694;BME280;49839;51.798;10.954;2023-06-22T05:39:59;99369.84;;;21.51;nan
63694;BME280;49839;51.798;10.954;2023-06-22T05:42:29;99371.09;;;21.56;nan
63694;BME280;49839;51.798;10.954;2023-06-22T05:44:58;99374.84;;;21.63;nan
63694;BME280;49839;51.798;10.954;2023-06-22T05:47:26;99375.56;;;21.66;nan
63694;BME280;49839;51.798;10.954;2023-06-22T05:49:54;99368.91;;;21.70;nan
63694;BME280;49839;51.798;10.954;2023-06-22T05:52:22;99375.38;;;21.77;nan
63694;BME280;49839;51.798;10.954;2023-06-22T05:54:49;99381.00;;;21.83;nan
63694;BME280;49839;51.798;10.954;2023-06-22T05:57:17;99378.00;;;21.86;nan
63694;BME280;49839;51.798;10.954;2023-06-22T05:59:45;99384.06;;;21.88;nan
63694;BME280;49839;51.798;10.954;2023-06-22T06:02:14;99385.63;;;21.91;nan
63694;BME280;49839;51.798;10.954;2023-06-22T06:04:41;99392.81;;;21.90;nan
63694;BME280;49839;51.798;10.954;2023-06-22T06:07:09;99395.63;;;21.89;nan
63694;BME280;49839;51.798;10.954;2023-06-22T06:09:37;99389.13;;;21.92;nan
63694;BME280;49839;51.798;10.954;2023-06-22T06:12:05;99386.13;;;21.95;nan
63694;BME280;49839;51.798;10.954;2023-06-22T06:14:33;99384.06;;;21.88;nan
63694;BME280;49839;51.798;10.954;2023-06-22T06:17:00;99388.97;;;21.93;nan
63694;BME280;49839;51.798;10.954;2023-06-22T06:19:31;99392.75;;;22.00;nan
63694;BME280;49839;51.798;10.954;2023-06-22T06:21:59;99386.63;;;22.08;nan
63694;BME280;49839;51.798;10.954;2023-06-22T06:24:26;99391.91;;;22.09;nan
63694;BME280;49839;51.798;10.954;2023-06-22T06:26:54;99393.66;;;22.19;nan
63694;BME280;49839;51.798;10.954;2023-06-22T06:29:22;99390.22;;;22.26;nan
63694;BME280;49839;51.798;10.954;2023-06-22T06:31:50;99382.25;;;22.34;nan
63694;BME280;49839;51.798;10.954;2023-06-22T06:34:19;99375.91;;;22.35;nan
63694;BME280;49839;51.798;10.954;2023-06-22T06:36:48;99379.34;;;22.46;nan
63694;BME280;49839;51.798;10.954;2023-06-22T06:39:16;99376.59;;;22.55;nan
63694;BME280;49839;51.798;10.954;2023-06-22T06:41:43;99374.59;;;22.57;nan
63694;BME280;49839;51.798;10.954;2023-06-22T06:44:11;99379.00;;;22.66;nan
63694;BME280;49839;51.798;10.954;2023-06-22T06:46:39;99376.19;;;22.68;nan
63694;BME280;49839;51.798;10.954;2023-06-22T06:49:08;99386.84;;;22.78;nan
63694;BME280;49839;51.798;10.954;2023-06-22T06:51:36;99385.53;;;22.82;nan
63694;BME280;49839;51.798;10.954;2023-06-22T06:54:05;99377.16;;;22.85;nan
63694;BME280;49839;51.798;10.954;2023-06-22T06:56:33;99378.84;;;22.86;nan
63694;BME280;49839;51.798;10.954;2023-06-22T06:59:01;99382.94;;;22.90;nan
63694;BME280;49839;51.798;10.954;2023-06-22T07:01:28;99374.25;;;22.96;nan
63694;BME280;49839;51.798;10.954;2023-06-22T07:04:00;99371.91;;;22.93;nan
63694;BME280;49839;51.798;10.954;2023-06-22T07:06:27;99373.41;;;22.95;nan
63694;BME280;49839;51.798;10.954;2023-06-22T07:08:58;99366.31;;;23.12;nan
63694;BME280;49839;51.798;10.954;2023-06-22T07:11:28;99374.09;;;23.23;nan
63694;BME280;49839;51.798;10.954;2023-06-22T07:13:56;99365.59;;;23.36;nan
63694;BME280;49839;51.798;10.954;2023-06-22T07:16:23;99375.28;;;23.55;nan
63694;BME280;49839;51.798;10.954;2023-06-22T07:18:52;99369.13;;;23.63;nan
63694;BME280;49839;51.798;10.954;2023-06-22T07:21:20;99379.50;;;23.84;nan
63694;BME280;49839;51.798;10.954;2023-06-22T07:23:47;99375.47;;;23.88;nan
63694;BME280;49839;51.798;10.954;2023-06-22T07:26:15;99375.78;;;23.85;nan
63694;BME280;49839;51.798;10.954;2023-06-22T07:28:44;99373.59;;;23.88;nan
63694;BME280;49839;51.798;10.954;2023-06-22T07:31:12;99380.34;;;23.92;nan
63694;BME280;49839;51.798;10.954;2023-06-22T07:33:40;99379.53;;;24.00;nan
63694;BME280;49839;51.798;10.954;2023-06-22T07:36:07;99378.25;;;24.20;nan
63694;BME280;49839;51.798;10.954;2023-06-22T07:38:35;99374.22;;;24.16;nan
63694;BME280;49839;51.798;10.954;2023-06-22T07:41:03;99379.41;;;24.10;nan
63694;BME280;49839;51.798;10.954;2023-06-22T07:43:32;99377.50;;;23.94;nan
63694;BME280;49839;51.798;10.954;2023-06-22T07:46:02;99375.69;;;24.02;nan
63694;BME280;49839;51.798;10.954;2023-06-22T07:48:30;99370.13;;;23.96;nan
63694;BME280;49839;51.798;10.954;2023-06-22T07:51:00;99368.09;;;23.90;nan
63694;BME280;49839;51.798;10.954;2023-06-22T07:53:28;99374.81;;;23.94;nan
63694;BME280;49839;51.798;10.954;2023-06-22T07:55:56;99371.06;;;23.78;nan
63694;BME280;49839;51.798;10.954;2023-06-22T07:58:23;99367.34;;;23.71;nan
63694;BME280;49839;51.798;10.954;2023-06-22T08:00:51;99360.13;;;23.80;nan
63694;BME280;49839;51.798;10.954;2023-06-22T08:03:20;99360.13;;;23.80;nan
63694;BME280;49839;51.798;10.954;2023-06-22T08:05:48;99360.00;;;23.90;nan
63694;BME280;49839;51.798;10.954;2023-06-22T08:08:16;99357.00;;;24.01;nan
63694;BME280;49839;51.798;10.954;2023-06-22T08:10:43;99360.03;;;24.06;nan
63694;BME280;49839;51.798;10.954;2023-06-22T08:13:11;99363.44;;;24.16;nan
63694;BME280;49839;51.798;10.954;2023-06-22T08:15:39;99349.88;;;24.42;nan
63694;BME280;49839;51.798;10.954;2023-06-22T08:18:06;99349.56;;;24.70;nan
63694;BME280;49839;51.798;10.954;2023-06-22T08:20:36;99350.06;;;25.06;nan
63694;BME280;49839;51.798;10.954;2023-06-22T08:23:03;99352.00;;;25.45;nan
63694;BME280;49839;51.798;10.954;2023-06-22T08:25:32;99358.78;;;25.80;nan
63694;BME280;49839;51.798;10.954;2023-06-22T08:28:01;99360.03;;;26.08;nan
63694;BME280;49839;51.798;10.954;2023-06-22T08:30:29;99366.53;;;26.14;nan
63694;BME280;49839;51.798;10.954;2023-06-22T08:32:56;99365.41;;;26.08;nan
63694;BME280;49839;51.798;10.954;2023-06-22T08:35:24;99362.41;;;26.26;nan
63694;BME280;49839;51.798;10.954;2023-06-22T08:37:54;99368.50;;;26.28;nan
63694;BME280;49839;51.798;10.954;2023-06-22T08:40:23;99363.03;;;26.36;nan
63694;BME280;49839;51.798;10.954;2023-06-22T08:42:51;99365.84;;;26.20;nan
63694;BME280;49839;51.798;10.954;2023-06-22T08:45:18;99357.19;;;26.25;nan
63694;BME280;49839;51.798;10.954;2023-06-22T08:47:46;99352.06;;;26.07;nan
63694;BME280;49839;51.798;10.954;2023-06-22T08:50:14;99361.13;;;26.14;nan
63694;BME280;49839;51.798;10.954;2023-06-22T08:52:42;99352.59;;;26.79;nan
63694;BME280;49839;51.798;10.954;2023-06-22T08:55:11;99348.97;;;27.10;nan
63694;BME280;49839;51.798;10.954;2023-06-22T08:57:39;99348.91;;;27.77;nan
63694;BME280;49839;51.798;10.954;2023-06-22T09:00:08;99347.47;;;27.96;nan
63694;BME280;49839;51.798;10.954;2023-06-22T09:02:52;99344.69;;;27.74;nan
63694;BME280;49839;51.798;10.954;2023-06-22T09:05:25;99342.38;;;27.71;nan
63694;BME280;49839;51.798;10.954;2023-06-22T09:07:53;99338.84;;;27.71;nan
63694;BME280;49839;51.798;10.954;2023-06-22T09:10:23;99328.69;;;27.94;nan
63694;BME280;49839;51.798;10.954;2023-06-22T09:12:51;99330.84;;;28.20;nan
63694;BME280;49839;51.798;10.954;2023-06-22T09:15:19;99331.03;;;29.04;nan
63694;BME280;49839;51.798;10.954;2023-06-22T09:17:46;99327.16;;;29.48;nan
63694;BME280;49839;51.798;10.954;2023-06-22T09:20:14;99324.56;;;29.68;nan
63694;BME280;49839;51.798;10.954;2023-06-22T09:22:42;99318.56;;;29.86;nan
63694;BME280;49839;51.798;10.954;2023-06-22T09:25:10;99311.38;;;30.19;nan
63694;BME280;49839;51.798;10.954;2023-06-22T09:27:39;99307.25;;;30.63;nan
63694;BME280;49839;51.798;10.954;2023-06-22T09:30:07;99303.31;;;30.99;nan
63694;BME280;49839;51.798;10.954;2023-06-22T09:32:35;99304.50;;;31.16;nan
63694;BME280;49839;51.798;10.954;2023-06-22T09:35:05;99308.91;;;31.11;nan
63694;BME280;49839;51.798;10.954;2023-06-22T09:37:33;99298.91;;;31.05;nan
63694;BME280;49839;51.798;10.954;2023-06-22T09:40:01;99303.06;;;31.34;nan
63694;BME280;49839;51.798;10.954;2023-06-22T09:42:34;99296.31;;;31.49;nan
63694;BME280;49839;51.798;10.954;2023-06-22T09:45:04;99298.28;;;31.80;nan
63694;BME280;49839;51.798;10.954;2023-06-22T09:47:31;99289.00;;;31.43;nan
63694;BME280;49839;51.798;10.954;2023-06-22T09:49:59;99282.66;;;31.63;nan
63694;BME280;49839;51.798;10.954;2023-06-22T09:52:27;99278.78;;;32.22;nan
63694;BME280;49839;51.798;10.954;2023-06-22T09:55:12;99281.41;;;32.42;nan
63694;BME280;49839;51.798;10.954;2023-06-22T09:57:41;99268.72;;;32.22;nan
63694;BME280;49839;51.798;10.954;2023-06-22T10:00:12;99271.16;;;31.99;nan
63694;BME280;49839;51.798;10.954;2023-06-22T10:02:41;99269.34;;;31.86;nan
63694;BME280;49839;51.798;10.954;2023-06-22T10:05:09;99265.81;;;31.79;nan
63694;BME280;49839;51.798;10.954;2023-06-22T10:07:37;99261.97;;;31.93;nan
63694;BME280;49839;51.798;10.954;2023-06-22T10:10:09;99258.66;;;31.85;nan
63694;BME280;49839;51.798;10.954;2023-06-22T10:12:41;99261.31;;;31.53;nan
63694;BME280;49839;51.798;10.954;2023-06-22T10:15:11;99263.06;;;31.27;nan
63694;BME280;49839;51.798;10.954;2023-06-22T10:17:39;99256.78;;;31.14;nan
63694;BME280;49839;51.798;10.954;2023-06-22T10:20:13;99260.97;;;31.10;nan
63694;BME280;49839;51.798;10.954;2023-06-22T10:22:41;99268.09;;;31.31;nan
63694;BME280;49839;51.798;10.954;2023-06-22T10:25:10;99271.34;;;31.52;nan
63694;BME280;49839;51.798;10.954;2023-06-22T10:27:38;99263.66;;;31.88;nan
63694;BME280;49839;51.798;10.954;2023-06-22T10:30:11;99256.59;;;31.73;nan
63694;BME280;49839;51.798;10.954;2023-06-22T10:32:40;99250.16;;;31.61;nan
63694;BME280;49839;51.798;10.954;2023-06-22T10:35:11;99255.91;;;31.40;nan
63694;BME280;49839;51.798;10.954;2023-06-22T10:37:43;99248.94;;;31.57;nan
63694;BME280;49839;51.798;10.954;2023-06-22T10:40:12;99250.63;;;31.96;nan
63694;BME280;49839;51.798;10.954;2023-06-22T10:42:39;99253.22;;;31.85;nan
63694;BME280;49839;51.798;10.954;2023-06-22T10:45:08;99253.00;;;31.86;nan
63694;BME280;49839;51.798;10.954;2023-06-22T10:47:37;99251.28;;;31.92;nan
63694;BME280;49839;51.798;10.954;2023-06-22T10:50:06;99243.38;;;31.77;nan
63694;BME280;49839;51.798;10.954;2023-06-22T10:52:34;99248.28;;;31.55;nan
63694;BME280;49839;51.798;10.954;2023-06-22T10:55:01;99236.44;;;31.30;nan
63694;BME280;49839;51.798;10.954;2023-06-22T10:57:29;99215.94;;;31.27;nan
63694;BME280;49839;51.798;10.954;2023-06-22T10:59:57;99217.38;;;31.23;nan
63694;BME280;49839;51.798;10.954;2023-06-22T11:02:24;99212.41;;;31.20;nan
63694;BME280;49839;51.798;10.954;2023-06-22T11:04:56;99216.25;;;30.92;nan
63694;BME280;49839;51.798;10.954;2023-06-22T11:07:26;99215.66;;;30.70;nan
63694;BME280;49839;51.798;10.954;2023-06-22T11:09:55;99219.41;;;30.56;nan
63694;BME280;49839;51.798;10.954;2023-06-22T11:12:23;99222.75;;;30.45;nan
63694;BME280;49839;51.798;10.954;2023-06-22T11:14:50;99212.09;;;30.50;nan
63694;BME280;49839;51.798;10.954;2023-06-22T11:17:18;99218.56;;;30.49;nan
63694;BME280;49839;51.798;10.954;2023-06-22T11:19:46;99205.59;;;30.44;nan
63694;BME280;49839;51.798;10.954;2023-06-22T11:22:15;99206.44;;;30.32;nan
63694;BME280;49839;51.798;10.954;2023-06-22T11:24:43;99201.44;;;30.29;nan
63694;BME280;49839;51.798;10.954;2023-06-22T11:27:10;99196.22;;;30.27;nan
63694;BME280;49839;51.798;10.954;2023-06-22T11:29:38;99186.59;;;30.18;nan
63694;BME280;49839;51.798;10.954;2023-06-22T11:32:07;99194.13;;;30.29;nan
63694;BME280;49839;51.798;10.954;2023-06-22T11:34:36;99193.91;;;30.24;nan
63694;BME280;49839;51.798;10.954;2023-06-22T11:37:04;99192.00;;;30.31;nan
63694;BME280;49839;51.798;10.954;2023-06-22T11:39:34;99179.03;;;30.20;nan
63694;BME280;49839;51.798;10.954;2023-06-22T11:42:08;99184.28;;;30.48;nan
63694;BME280;49839;51.798;10.954;2023-06-22T11:44:36;99182.41;;;30.68;nan
63694;BME280;49839;51.798;10.954;2023-06-22T11:47:05;99168.56;;;30.77;nan
63694;BME280;49839;51.798;10.954;2023-06-22T11:49:32;99165.00;;;30.76;nan
63694;BME280;49839;51.798;10.954;2023-06-22T11:52:00;99168.34;;;30.78;nan
63694;BME280;49839;51.798;10.954;2023-06-22T11:54:28;99174.66;;;30.79;nan
63694;BME280;49839;51.798;10.954;2023-06-22T11:56:57;99158.13;;;30.54;nan
63694;BME280;49839;51.798;10.954;2023-06-22T11:59:24;99157.50;;;30.45;nan
63694;BME280;49839;51.798;10.954;2023-06-22T12:01:52;99152.72;;;30.40;nan
63694;BME280;49839;51.798;10.954;2023-06-22T12:04:20;99138.28;;;30.27;nan
63694;BME280;49839;51.798;10.954;2023-06-22T12:06:47;99144.75;;;30.32;nan
63694;BME280;49839;51.798;10.954;2023-06-22T12:09:15;99140.34;;;30.05;nan
63694;BME280;49839;51.798;10.954;2023-06-22T12:11:43;99128.66;;;29.98;nan
63694;BME280;49839;51.798;10.954;2023-06-22T12:14:12;99137.41;;;29.93;nan
63694;BME280;49839;51.798;10.954;2023-06-22T12:16:39;99120.50;;;29.91;nan
63694;BME280;49839;51.798;10.954;2023-06-22T12:19:07;99120.28;;;29.86;nan
63694;BME280;49839;51.798;10.954;2023-06-22T12:21:35;99123.41;;;29.70;nan
63694;BME280;49839;51.798;10.954;2023-06-22T12:24:02;99107.13;;;29.70;nan
63694;BME280;49839;51.798;10.954;2023-06-22T12:26:30;99093.94;;;29.60;nan
63694;BME280;49839;51.798;10.954;2023-06-22T12:28:58;99087.28;;;29.69;nan
63694;BME280;49839;51.798;10.954;2023-06-22T12:31:27;99078.72;;;29.85;nan
63694;BME280;49839;51.798;10.954;2023-06-22T12:33:55;99086.84;;;29.99;nan
63694;BME280;49839;51.798;10.954;2023-06-22T12:36:22;99081.84;;;29.82;nan
63694;BME280;49839;51.798;10.954;2023-06-22T12:38:51;99079.31;;;29.87;nan
63694;BME280;49839;51.798;10.954;2023-06-22T12:41:20;99075.16;;;29.85;nan
63694;BME280;49839;51.798;10.954;2023-06-22T12:43:48;99082.25;;;29.86;nan
63694;BME280;49839;51.798;10.954;2023-06-22T12:46:15;99065.97;;;29.79;nan
63694;BME280;49839;51.798;10.954;2023-06-22T12:48:45;99054.47;;;29.71;nan
63694;BME280;49839;51.798;10.954;2023-06-22T12:51:20;99059.06;;;29.63;nan
63694;BME280;49839;51.798;10.954;2023-06-22T12:53:48;99062.41;;;29.79;nan
63694;BME280;49839;51.798;10.954;2023-06-22T12:56:15;99060.31;;;29.87;nan
63694;BME280;49839;51.798;10.954;2023-06-22T12:58:43;99058.66;;;29.86;nan
63694;BME280;49839;51.798;10.954;2023-06-22T13:01:11;99054.47;;;29.77;nan
63694;BME280;49839;51.798;10.954;2023-06-22T13:03:38;99055.53;;;29.70;nan
63694;BME280;49839;51.798;10.954;2023-06-22T13:06:07;99050.50;;;29.66;nan
63694;BME280;49839;51.798;10.954;2023-06-22T13:08:35;99046.13;;;29.79;nan
63694;BME280;49839;51.798;10.954;2023-06-22T13:11:23;99027.53;;;29.82;nan
63694;BME280;49839;51.798;10.954;2023-06-22T13:13:50;99023.97;;;29.82;nan
63694;BME280;49839;51.798;10.954;2023-06-22T13:16:18;99030.44;;;29.81;nan
63694;BME280;49839;51.798;10.954;2023-06-22T13:18:46;99033.81;;;29.83;nan